Time;durP1;ratioP1;P1;durP2;ratioP2;P2;SDS_P1;SDS_P2;PMS_P1;PMS_P2;Temp;Humidity;BMP_temperature;BMP_pressure;BME280_temperature;BME280_humidity;BME280_pressure;Samples;Min_cycle;Max_cycle;Signal;HPM_P1;HPM_P2
2022/05/24 00:00:46;;;;;;;5.08;3.70;;;;;;;13.23;51.63;100015.28;1632267;86;21628;-77
2022/05/24 00:03:12;;;;;;;3.77;3.27;;;;;;;13.23;51.69;100010.09;1634549;87;21221;-78
2022/05/24 00:05:38;;;;;;;5.00;2.95;;;;;;;13.25;51.75;100008.73;1658500;85;21123;-77
2022/05/24 00:08:07;;;;;;;6.30;2.75;;;;;;;13.24;51.81;100004.00;1647880;85;21071;-76
2022/05/24 00:10:34;;;;;;;4.05;2.62;;;;;;;13.27;51.93;100006.08;1656870;85;21395;-78
2022/05/24 00:13:01;;;;;;;4.37;2.45;;;;;;;13.28;51.97;99996.94;1644909;86;21016;-78
2022/05/24 00:15:30;;;;;;;4.90;3.50;;;;;;;13.30;52.05;99992.53;1656128;86;21635;-78
2022/05/24 00:18:13;;;;;;;6.90;3.20;;;;;;;13.34;52.13;99988.08;1645020;86;20968;-78
2022/05/24 00:20:48;;;;;;;4.95;2.72;;;;;;;13.37;52.17;99995.75;1631323;86;20977;-78
2022/05/24 00:23:15;;;;;;;4.30;2.75;;;;;;;13.39;52.24;99988.75;1638975;86;20937;-79
2022/05/24 00:25:45;;;;;;;3.87;2.95;;;;;;;13.41;52.28;99983.05;1658238;86;20934;-78
2022/05/24 00:28:14;;;;;;;5.10;2.77;;;;;;;13.44;52.46;99982.94;1658104;86;20933;-77
2022/05/24 00:30:42;;;;;;;3.62;3.30;;;;;;;13.47;52.45;99982.37;1657727;86;20985;-77
2022/05/24 00:33:08;;;;;;;3.55;2.83;;;;;;;13.50;52.49;99977.51;1641487;86;20898;-77
2022/05/24 00:35:35;;;;;;;6.60;2.58;;;;;;;13.53;52.55;99973.02;1643269;86;20949;-78
2022/05/24 00:38:02;;;;;;;4.80;3.22;;;;;;;13.55;52.63;99968.61;1631446;86;20933;-78
2022/05/24 00:40:57;;;;;;;7.17;3.22;;;;;;;13.57;52.66;99970.69;1631606;87;21498;-80
2022/05/24 00:43:38;;;;;;;5.35;2.87;;;;;;;13.58;52.70;99968.94;1631694;86;20933;-78
2022/05/24 00:46:10;;;;;;;3.52;3.00;;;;;;;13.58;52.76;99959.39;1639641;86;20954;-78
2022/05/24 00:48:47;;;;;;;8.00;2.87;;;;;;;13.61;52.84;99957.13;1657145;86;20906;-77
2022/05/24 00:51:18;;;;;;;3.33;2.55;;;;;;;13.61;52.84;99961.03;1632941;86;21585;-77
2022/05/24 00:53:49;;;;;;;4.37;2.92;;;;;;;13.62;52.98;99960.12;1629233;87;21096;-77
2022/05/24 00:56:19;;;;;;;3.62;2.90;;;;;;;13.64;52.99;99958.77;1629913;87;21480;-77
2022/05/24 00:58:57;;;;;;;6.33;2.85;;;;;;;13.63;53.04;99949.28;1634175;86;21112;-77
2022/05/24 01:01:39;;;;;;;6.78;4.17;;;;;;;13.63;53.06;99954.02;1649763;86;21548;-77
2022/05/24 01:04:08;;;;;;;3.45;2.85;;;;;;;13.62;53.16;99940.64;1653815;86;21656;-77
2022/05/24 01:06:35;;;;;;;4.05;2.87;;;;;;;13.62;53.23;99944.98;1654763;86;21520;-78
2022/05/24 01:09:06;;;;;;;4.17;3.45;;;;;;;13.60;53.24;99934.66;1654685;86;21119;-78
2022/05/24 01:11:37;;;;;;;4.25;3.08;;;;;;;13.60;53.28;99937.26;1645532;86;21136;-77
2022/05/24 01:14:13;;;;;;;3.67;2.75;;;;;;;13.58;53.29;99931.27;1639335;86;21608;-79
2022/05/24 01:16:41;;;;;;;4.08;3.10;;;;;;;13.58;53.42;99927.38;1645681;86;21536;-79
2022/05/24 01:19:12;;;;;;;2.80;2.60;;;;;;;13.57;53.42;99923.94;1634229;86;21090;-78
2022/05/24 01:21:39;;;;;;;3.35;3.00;;;;;;;13.57;53.48;99920.48;1627501;86;21533;-77
2022/05/24 01:24:28;;;;;;;3.60;2.90;;;;;;;13.56;53.53;99920.95;1628435;87;21520;-79
2022/05/24 01:26:57;;;;;;;3.45;3.00;;;;;;;13.57;53.55;99925.23;1630219;86;21587;-77
2022/05/24 01:29:26;;;;;;;5.03;3.55;;;;;;;13.57;53.63;99922.63;1614763;87;21500;-77
2022/05/24 01:37:27;;;;;;;3.60;3.17;;;;;;;13.62;53.67;99909.92;1641258;87;21488;-78
2022/05/24 01:39:57;;;;;;;4.20;2.72;;;;;;;13.62;53.73;99902.13;1654745;86;21239;-79
2022/05/24 01:42:24;;;;;;;4.30;3.30;;;;;;;13.63;53.78;99906.41;1641305;87;21540;-78
2022/05/24 01:45:11;;;;;;;5.85;3.55;;;;;;;13.62;53.82;99902.97;1640163;86;21619;-78
2022/05/24 01:47:42;;;;;;;5.37;3.27;;;;;;;13.63;53.96;99900.77;1653493;86;21442;-78
2022/05/24 01:50:13;;;;;;;7.67;3.40;;;;;;;13.63;53.95;99890.38;1640852;87;21558;-78
2022/05/24 01:52:50;;;;;;;2.98;2.60;;;;;;;13.65;54.09;99879.92;1651849;85;21053;-78
2022/05/24 01:55:28;;;;;;;2.92;2.58;;;;;;;13.66;54.09;99883.76;1615964;87;21056;-80
2022/05/24 01:57:59;;;;;;;3.50;2.72;;;;;;;13.68;54.12;99878.50;1654970;85;21496;-77
2022/05/24 02:00:27;;;;;;;2.95;2.52;;;;;;;13.68;54.17;99874.60;1640695;87;21477;-76
2022/05/24 02:02:53;;;;;;;4.23;3.33;;;;;;;13.70;54.19;99872.79;1633507;86;21122;-78
2022/05/24 02:05:34;;;;;;;7.12;2.77;;;;;;;13.72;54.20;99865.33;1600068;87;21804;-77
2022/05/24 02:08:03;;;;;;;4.22;3.35;;;;;;;13.74;54.25;99865.27;1626758;87;21088;-76
2022/05/24 02:10:47;;;;;;;3.98;2.77;;;;;;;13.76;54.33;99867.34;1617005;86;21104;-76
2022/05/24 02:13:19;;;;;;;5.25;3.52;;;;;;;13.76;54.35;99859.55;1644777;86;21536;-78
2022/05/24 02:15:48;;;;;;;5.53;2.80;;;;;;;13.76;54.35;99859.55;1652218;86;21538;-79
2022/05/24 02:18:19;;;;;;;5.78;2.98;;;;;;;13.76;54.36;99853.05;1650651;85;22192;-79
2022/05/24 02:20:47;;;;;;;3.85;3.27;;;;;;;13.75;54.38;99854.81;1632183;86;21528;-77
2022/05/24 02:23:16;;;;;;;6.47;3.00;;;;;;;13.74;54.40;99857.02;1629616;86;21585;-78
2022/05/24 02:25:57;;;;;;;3.77;3.22;;;;;;;13.71;54.44;99853.23;1627934;86;21438;-79
2022/05/24 02:28:29;;;;;;;7.42;3.02;;;;;;;13.69;54.47;99843.81;1634358;87;21409;-77
2022/05/24 02:31:04;;;;;;;6.50;3.05;;;;;;;13.66;54.50;99847.38;1634416;84;21477;-77
2022/05/24 02:33:32;;;;;;;5.28;3.17;;;;;;;13.64;54.68;99845.30;1656337;86;21414;-78
2022/05/24 02:35:59;;;;;;;6.58;3.10;;;;;;;13.63;54.62;99847.97;1618304;88;21538;-79
2022/05/24 02:38:27;;;;;;;5.08;2.98;;;;;;;13.62;54.66;99840.63;1595460;89;26979;-78
2022/05/24 02:43:39;;;;;;;5.00;3.08;;;;;;;13.63;54.71;99831.08;1589735;90;21050;-77
2022/05/24 02:46:24;;;;;;;3.47;3.17;;;;;;;13.63;54.76;99833.67;1595300;88;21607;-77
2022/05/24 02:48:50;;;;;;;4.10;2.95;;;;;;;13.63;54.78;99842.77;1655034;86;21115;-79
2022/05/24 02:51:17;;;;;;;3.50;3.20;;;;;;;13.63;54.86;99840.17;1650339;86;21142;-79
2022/05/24 02:53:45;;;;;;;8.50;3.15;;;;;;;13.61;54.83;99844.12;1641777;86;21076;-79
2022/05/24 02:56:13;;;;;;;4.12;3.65;;;;;;;13.61;54.98;99842.83;1653169;86;21138;-78
2022/05/24 02:58:40;;;;;;;4.40;2.80;;;;;;;13.61;54.97;99836.79;1659541;85;21141;-78
2022/05/24 03:01:15;;;;;;;;;;;;;;;13.59;54.97;99836.85;1656911;86;21044;-77
2022/05/24 03:03:42;;;;;;;3.83;2.87;;;;;;;13.62;55.30;99838.03;1629418;86;20313;-77
2022/05/24 03:06:10;;;;;;;3.60;3.30;;;;;;;13.64;55.05;99839.27;1637825;85;20952;-77
2022/05/24 03:11:21;;;;;;;5.03;3.00;;;;;;;13.66;55.14;99833.09;1636959;86;20961;-77
2022/05/24 03:16:31;;;;;;;5.42;3.10;;;;;;;13.70;55.21;99837.72;1654108;86;21085;-78
2022/05/24 03:18:57;;;;;;;5.33;3.25;;;;;;;13.72;55.28;99830.70;1640284;85;21048;-78
2022/05/24 03:21:23;;;;;;;3.97;2.97;;;;;;;13.71;55.28;99829.86;1645697;86;20878;-79
2022/05/24 03:23:49;;;;;;;5.83;3.47;;;;;;;13.73;55.33;99824.14;1654335;86;20965;-78
2022/05/24 03:26:15;;;;;;;8.70;3.07;;;;;;;13.77;55.35;99819.21;1630238;87;20917;-78
2022/05/24 03:28:46;;;;;;;3.43;2.90;;;;;;;13.79;55.42;99813.95;1627530;86;21152;-77
2022/05/24 03:31:12;;;;;;;5.95;2.75;;;;;;;13.80;55.43;99815.64;1628639;87;21549;-78
2022/05/24 03:33:38;;;;;;;4.60;3.30;;;;;;;13.80;55.48;99811.74;1633742;86;21105;-77
2022/05/24 03:36:05;;;;;;;4.27;3.13;;;;;;;13.81;55.50;99814.73;1628762;86;21020;-78
2022/05/24 03:38:31;;;;;;;7.15;3.25;;;;;;;13.80;55.56;99815.19;1627096;86;21998;-78
2022/05/24 03:40:57;;;;;;;3.97;3.07;;;;;;;13.81;55.57;99816.88;1645141;86;20957;-78
2022/05/24 03:43:26;;;;;;;5.67;3.08;;;;;;;13.84;55.70;99818.50;1631954;86;21087;-78
2022/05/24 03:46:03;;;;;;;3.45;3.15;;;;;;;13.85;55.63;99819.73;1634981;86;20867;-78
2022/05/24 03:48:36;;;;;;;3.62;3.22;;;;;;;13.87;55.70;99828.77;1654113;85;21030;-79
2022/05/24 03:51:02;;;;;;;;;;;;;;;13.90;55.72;99833.84;1599440;86;20996;-78
2022/05/24 03:53:28;;;;;;;3.35;3.05;;;;;;;13.91;56.12;99829.88;1637376;86;20149;-78
2022/05/24 03:55:55;;;;;;;5.63;3.47;;;;;;;13.92;55.76;99837.22;1654505;86;21036;-79
2022/05/24 03:58:23;;;;;;;2.92;2.62;;;;;;;13.94;55.80;99835.86;1638762;86;26485;-79
2022/05/24 04:00:50;;;;;;;6.53;3.15;;;;;;;13.95;55.83;99838.39;1629180;86;21516;-79
2022/05/24 04:03:16;;;;;;;4.12;3.00;;;;;;;13.96;55.82;99837.48;1638192;86;27182;-79
2022/05/24 04:05:44;;;;;;;5.82;3.30;;;;;;;13.98;55.88;99847.81;1541059;85;10000618;-78
2022/05/24 04:08:26;;;;;;;3.90;3.25;;;;;;;13.99;55.91;99846.45;1631572;86;20961;-79
2022/05/24 04:11:06;;;;;;;3.37;2.85;;;;;;;14.04;55.94;99848.82;1651805;86;20957;-78
2022/05/24 04:13:37;;;;;;;4.58;2.85;;;;;;;14.05;56.00;99844.02;1636123;86;20966;-77
2022/05/24 04:16:04;;;;;;;6.17;3.20;;;;;;;14.05;56.02;99841.41;1638421;86;20898;-80
2022/05/24 04:18:30;;;;;;;4.00;3.25;;;;;;;14.06;56.01;99827.50;1649926;86;20907;-80
2022/05/24 04:20:59;;;;;;;4.25;2.80;;;;;;;14.01;56.06;99819.94;1655594;86;20937;-80
2022/05/24 04:23:26;;;;;;;3.12;2.83;;;;;;;13.95;56.19;99821.95;1655745;86;24107;-80
2022/05/24 04:25:54;;;;;;;2.92;2.60;;;;;;;13.88;56.29;99822.20;1655942;86;20930;-79
2022/05/24 04:28:21;;;;;;;4.55;2.92;;;;;;;13.81;56.41;99814.73;1643572;85;21066;-79
2022/05/24 04:30:49;;;;;;;2.75;2.55;;;;;;;13.75;56.52;99809.79;1628845;87;20970;-79
2022/05/24 04:33:19;;;;;;;2.98;2.67;;;;;;;13.70;56.64;99816.93;1630288;87;21057;-78
2022/05/24 04:35:45;;;;;;;3.45;2.70;;;;;;;13.65;56.72;99818.42;1631932;85;21496;-78
2022/05/24 04:38:12;;;;;;;9.75;2.80;;;;;;;13.64;56.76;99832.31;1638774;86;21099;-78
2022/05/24 04:43:23;;;;;;;4.75;2.62;;;;;;;13.65;56.88;99832.70;1626981;87;21155;-80
2022/05/24 04:45:53;;;;;;;4.83;2.67;;;;;;;13.65;57.03;99830.11;1643569;85;21099;-79
2022/05/24 04:48:17;;;;;;;3.75;3.08;;;;;;;13.68;57.06;99824.79;1653290;86;21165;-79
2022/05/24 04:50:43;;;;;;;5.28;2.83;;;;;;;13.72;57.11;99813.81;1653845;85;21131;-79
2022/05/24 04:53:09;;;;;;;3.70;2.50;;;;;;;13.74;57.17;99809.40;1654296;86;21012;-79
2022/05/24 04:55:35;;;;;;;3.30;3.00;;;;;;;13.74;57.15;99819.80;1650846;86;21127;-80
2022/05/24 04:58:01;;;;;;;4.60;3.17;;;;;;;13.70;57.11;99820.83;1640566;85;21140;-79
2022/05/24 05:00:28;;;;;;;4.23;2.83;;;;;;;13.70;57.11;99820.83;1652342;86;21248;-79
2022/05/24 05:02:54;;;;;;;3.47;2.70;;;;;;;13.66;57.30;99822.70;1641941;86;21358;-79
2022/05/24 05:05:20;;;;;;;2.97;2.73;;;;;;;13.64;57.40;99818.48;1612831;87;21714;-79
2022/05/24 05:07:46;;;;;;;4.70;2.90;;;;;;;13.67;57.47;99818.35;1596769;88;236298;-79
2022/05/24 05:10:14;;;;;;;4.67;2.40;;;;;;;13.69;57.55;99820.44;1588468;89;20909;-79
2022/05/24 05:12:40;;;;;;;4.15;2.75;;;;;;;13.71;57.52;99819.92;1595976;88;21155;-78
2022/05/24 05:15:08;;;;;;;5.73;2.93;;;;;;;13.73;57.55;99823.30;1611689;88;21104;-78
2022/05/24 05:17:34;;;;;;;3.83;3.10;;;;;;;13.75;57.67;99830.58;1656026;86;20958;-78
2022/05/24 05:20:02;;;;;;;3.20;2.57;;;;;;;13.81;57.76;99829.02;1647293;86;20957;-78
2022/05/24 05:22:28;;;;;;;3.08;2.75;;;;;;;13.87;57.86;99824.41;1656055;86;20962;-78
2022/05/24 05:24:54;;;;;;;3.00;2.70;;;;;;;13.95;57.83;99822.80;1656313;86;20893;-78
2022/05/24 05:27:20;;;;;;;2.90;2.50;;;;;;;13.99;57.83;99812.66;1646566;86;20952;-78
2022/05/24 05:32:34;;;;;;;6.90;2.80;;;;;;;14.00;57.91;99810.91;1632867;86;20973;-78
2022/05/24 05:35:01;;;;;;;4.80;2.70;;;;;;;14.02;58.01;99811.23;1648448;85;20902;-78
2022/05/24 05:37:30;;;;;;;2.87;2.67;;;;;;;14.06;58.05;99811.45;1635122;86;20941;-78
2022/05/24 05:39:57;;;;;;;3.45;2.70;;;;;;;14.06;58.09;99808.01;1637092;86;20992;-78
2022/05/24 05:42:24;;;;;;;6.70;2.77;;;;;;;14.09;58.11;99815.67;1648349;86;20977;-77
2022/05/24 05:44:52;;;;;;;4.87;2.20;;;;;;;14.12;58.18;99820.74;1649556;86;20977;-77
2022/05/24 05:47:19;;;;;;;4.42;2.98;;;;;;;14.14;58.14;99809.83;1644434;86;21565;-77
2022/05/24 05:49:46;;;;;;;2.98;2.62;;;;;;;14.15;58.22;99816.26;1629406;87;20937;-78
2022/05/24 05:52:12;;;;;;;;;;;;;;;14.19;58.26;99816.52;1631575;87;20905;-78
2022/05/24 05:54:38;;;;;;;4.00;3.43;;;;;;;14.22;58.54;99817.68;1634830;85;20227;-78
2022/05/24 05:57:07;;;;;;;3.08;2.22;;;;;;;14.26;58.32;99814.49;1634254;86;20993;-78
2022/05/24 05:59:33;;;;;;;3.45;2.45;;;;;;;14.30;58.40;99813.91;1642960;85;20971;-78
2022/05/24 06:02:03;;;;;;;4.22;2.83;;;;;;;14.37;58.42;99807.52;1647998;85;20981;-78
2022/05/24 06:04:28;;;;;;;5.62;2.83;;;;;;;14.39;58.36;99807.84;1639829;86;20945;-78
2022/05/24 06:06:54;;;;;;;6.05;2.83;;;;;;;14.39;58.38;99806.54;1648404;85;21016;-78
2022/05/24 06:09:21;;;;;;;2.80;2.60;;;;;;;14.40;58.43;99812.13;1647719;86;21084;-78
2022/05/24 06:11:47;;;;;;;4.30;2.67;;;;;;;14.42;58.46;99810.34;1647956;86;21116;-77
2022/05/24 06:14:13;;;;;;;4.25;2.52;;;;;;;14.44;58.47;99812.41;1650341;86;21066;-77
2022/05/24 06:16:39;;;;;;;5.00;2.25;;;;;;;14.48;58.49;99811.82;1647958;86;21086;-77
2022/05/24 06:19:06;;;;;;;4.10;2.77;;;;;;;14.50;58.55;99818.64;1639182;86;21823;-77
2022/05/24 06:21:33;;;;;;;4.47;3.00;;;;;;;14.55;58.60;99816.69;1648196;86;21025;-78
2022/05/24 06:24:04;;;;;;;3.08;2.35;;;;;;;14.60;58.55;99819.05;1646624;86;21133;-78
2022/05/24 06:26:34;;;;;;;3.25;2.50;;;;;;;14.62;58.60;99825.03;1652755;86;21469;-78
2022/05/24 06:29:01;;;;;;;3.80;2.70;;;;;;;14.69;58.60;99826.89;1650581;85;20989;-77
2022/05/24 06:31:27;;;;;;;3.37;2.98;;;;;;;14.71;58.64;99832.87;1651249;86;21045;-78
2022/05/24 06:33:55;;;;;;;3.87;2.42;;;;;;;14.76;58.64;99839.56;1647971;85;21089;-78
2022/05/24 06:36:22;;;;;;;3.15;2.90;;;;;;;14.80;58.67;99845.02;1647792;86;20929;-77
2022/05/24 06:38:49;;;;;;;3.27;2.73;;;;;;;14.86;58.72;99836.92;1646246;85;21573;-79
2022/05/24 06:41:15;;;;;;;3.15;2.42;;;;;;;14.90;58.69;99836.33;1643504;85;20948;-74
2022/05/24 06:43:41;;;;;;;3.45;3.12;;;;;;;14.92;58.70;99836.26;1643323;85;20985;-74
2022/05/24 06:46:07;;;;;;;4.57;2.90;;;;;;;14.96;58.83;99841.25;1636391;85;20885;-73
2022/05/24 06:48:40;;;;;;;3.35;2.50;;;;;;;14.99;58.77;99839.81;1634257;86;21125;-73
2022/05/24 06:51:17;;;;;;;3.27;2.87;;;;;;;15.04;58.82;99841.75;1638133;86;21050;-74
2022/05/24 06:53:45;;;;;;;3.17;2.40;;;;;;;15.07;58.79;99844.20;1643664;85;21466;-74
2022/05/24 06:56:11;;;;;;;4.65;2.58;;;;;;;15.12;58.81;99855.22;1640238;85;21111;-73
2022/05/24 06:58:38;;;;;;;4.73;2.70;;;;;;;15.14;58.78;99850.78;1636650;86;21080;-73
2022/05/24 07:03:55;;;;;;;2.62;2.30;;;;;;;15.21;58.79;99857.85;1629093;87;20945;-74
2022/05/24 07:06:21;;;;;;;3.65;2.65;;;;;;;15.26;58.88;99848.06;1641650;86;20918;-74
2022/05/24 07:08:49;;;;;;;3.30;2.73;;;;;;;15.32;58.85;99853.44;1636464;86;20949;-76
2022/05/24 07:11:19;;;;;;;3.55;2.65;;;;;;;15.36;58.91;99853.69;1636948;85;20941;-73
2022/05/24 07:13:47;;;;;;;2.83;2.52;;;;;;;15.41;58.92;99852.55;1656182;86;20997;-74
2022/05/24 07:16:13;;;;;;;5.00;2.80;;;;;;;15.46;58.91;99849.72;1650241;85;21576;-74
2022/05/24 07:18:39;;;;;;;3.77;2.77;;;;;;;15.49;58.86;99851.72;1641494;86;21115;-74
2022/05/24 07:21:06;;;;;;;3.92;2.98;;;;;;;15.50;58.82;99856.47;1644827;85;21111;-74
2022/05/24 07:23:37;;;;;;;2.98;2.77;;;;;;;15.53;58.88;99858.47;1646663;85;21095;-75
2022/05/24 07:26:11;;;;;;;4.42;2.58;;;;;;;15.57;58.95;99847.47;1644644;87;21561;-74
2022/05/24 07:28:40;;;;;;;4.95;2.95;;;;;;;15.60;58.94;99847.78;1656106;86;21432;-74
2022/05/24 07:31:06;;;;;;;4.03;2.90;;;;;;;15.64;58.91;99840.17;1651071;85;21100;-74
2022/05/24 07:33:32;;;;;;;2.72;2.37;;;;;;;15.68;58.94;99845.16;1642819;85;21134;-74
2022/05/24 07:36:05;;;;;;;3.58;2.92;;;;;;;15.74;58.96;99850.06;1642670;85;21112;-74
2022/05/24 07:38:32;;;;;;;3.33;2.75;;;;;;;15.79;58.92;99847.23;1637415;85;20941;-74
2022/05/24 07:46:30;;;;;;;6.80;3.20;;;;;;;15.91;58.97;99846.63;1648207;86;21206;-76
2022/05/24 07:48:57;;;;;;;5.33;3.12;;;;;;;15.99;58.99;99844.48;1644356;86;21702;-73
2022/05/24 07:51:23;;;;;;;3.93;3.33;;;;;;;16.08;58.97;99841.87;1616773;87;21071;-73
2022/05/24 07:53:49;;;;;;;8.90;3.43;;;;;;;16.18;58.97;99839.98;1648249;86;21092;-73
2022/05/24 07:56:18;;;;;;;4.27;3.67;;;;;;;16.33;59.00;99846.64;1644982;85;20906;-73
2022/05/24 07:58:43;;;;;;;3.72;3.12;;;;;;;16.46;58.98;99842.47;1622532;86;21122;-73
2022/05/24 08:01:10;;;;;;;8.85;3.02;;;;;;;16.61;59.00;99843.44;1622216;86;20995;-73
2022/05/24 08:03:41;;;;;;;3.90;3.20;;;;;;;16.77;59.03;99846.92;1627373;86;20936;-73
2022/05/24 08:06:07;;;;;;;4.00;3.20;;;;;;;16.92;58.98;99849.17;1644749;86;21516;-73
2022/05/24 08:08:33;;;;;;;3.83;3.47;;;;;;;17.11;58.96;99854.61;1644885;86;20921;-73
2022/05/24 08:11:00;;;;;;;;;;;;;;;17.23;58.90;99852.22;1646750;85;20981;-73
2022/05/24 08:13:26;;;;;;;4.25;3.85;;;;;;;17.42;58.87;99852.42;1656573;86;20138;-73
2022/05/24 08:15:54;;;;;;;3.42;3.00;;;;;;;17.64;58.96;99862.51;1656605;86;20943;-73
2022/05/24 08:18:21;;;;;;;3.92;3.55;;;;;;;17.88;58.87;99865.49;1631076;86;21521;-73
2022/05/24 08:20:48;;;;;;;6.90;3.20;;;;;;;18.11;58.90;99856.30;1643343;86;20905;-73
2022/05/24 08:23:24;;;;;;;6.55;3.90;;;;;;;18.41;58.98;99855.75;1632469;85;36884;-73
2022/05/24 08:25:51;;;;;;;3.70;3.25;;;;;;;18.78;58.62;99859.59;1650821;85;21897;-73
2022/05/24 08:28:18;;;;;;;5.42;3.52;;;;;;;18.98;58.53;99862.29;1647904;85;20993;-73
2022/05/24 08:30:44;;;;;;;;;;;;;;;19.08;58.42;99856.84;1649944;86;20915;-74
2022/05/24 08:33:14;;;;;;;3.42;3.12;;;;;;;19.10;58.03;99861.52;1627528;85;20220;-74
2022/05/24 08:35:42;;;;;;;3.85;3.52;;;;;;;19.08;58.24;99866.02;1645561;86;20932;-74
2022/05/24 08:38:10;;;;;;;4.33;3.50;;;;;;;19.08;58.28;99862.55;1646508;86;21342;-74
2022/05/24 08:40:40;;;;;;;4.60;3.87;;;;;;;19.13;58.20;99867.04;1626665;86;20937;-74
2022/05/24 08:43:40;;;;;;;3.67;3.37;;;;;;;19.22;58.18;99871.70;1631834;86;20968;-74
2022/05/24 08:49:09;;;;;;;3.83;3.37;;;;;;;19.43;58.00;99867.68;1646293;85;20984;-73
2022/05/24 08:51:45;;;;;;;4.08;3.67;;;;;;;19.48;57.89;99873.94;1649758;85;21536;-73
2022/05/24 08:54:15;;;;;;;;;;;;;;;19.48;57.70;99871.31;1649145;85;20924;-73
2022/05/24 08:56:55;;;;;;;3.92;3.50;;;;;;;19.47;57.54;99874.88;1653687;85;20087;-73
2022/05/24 08:59:32;;;;;;;4.15;3.85;;;;;;;19.50;57.65;99873.37;1643860;85;20901;-73
2022/05/24 09:01:59;;;;;;;3.72;3.42;;;;;;;19.49;57.54;99873.84;1645451;85;20948;-73
2022/05/24 09:04:26;;;;;;;4.53;3.98;;;;;;;19.46;57.46;99872.73;1651021;85;20920;-73
2022/05/24 09:07:07;;;;;;;4.67;3.58;;;;;;;19.41;57.36;99872.65;1618069;88;20933;-74
2022/05/24 09:10:01;;;;;;;4.12;3.72;;;;;;;19.40;57.32;99875.73;1615555;87;20974;-77
2022/05/24 09:13:01;;;;;;;3.98;3.55;;;;;;;19.29;57.18;99878.20;1656591;85;20925;-77
2022/05/24 09:15:50;;;;;;;7.08;4.12;;;;;;;19.18;57.13;99872.83;1648747;85;20929;-77
2022/05/24 09:18:37;;;;;;;6.22;4.35;;;;;;;19.08;57.01;99873.88;1653980;86;20953;-74
2022/05/24 09:21:04;;;;;;;8.15;4.65;;;;;;;18.99;57.08;99881.00;1645339;84;20956;-74
2022/05/24 09:23:50;;;;;;;5.28;4.78;;;;;;;18.91;57.14;99879.33;1621100;87;21395;-74
2022/05/24 09:26:24;;;;;;;6.33;4.40;;;;;;;18.89;57.17;99880.36;1600400;88;20972;-74
2022/05/24 09:28:59;;;;;;;4.67;4.28;;;;;;;18.84;57.15;99876.71;1619894;87;21414;-74
2022/05/24 09:31:41;;;;;;;5.28;4.28;;;;;;;18.77;57.13;99875.41;1585133;89;20947;-74
2022/05/24 09:34:30;;;;;;;5.72;4.75;;;;;;;18.67;57.06;99886.10;1640793;86;21328;-75
2022/05/24 09:37:00;;;;;;;6.67;4.22;;;;;;;18.54;57.05;99883.34;1646848;85;21501;-74
2022/05/24 09:39:43;;;;;;;5.37;4.87;;;;;;;18.45;57.07;99886.52;1641334;86;20953;-74
2022/05/24 09:42:14;;;;;;;6.65;4.90;;;;;;;18.37;57.02;99884.83;1652386;86;21044;-74
2022/05/24 09:44:50;;;;;;;5.97;4.37;;;;;;;18.29;57.06;99889.20;1620903;88;21064;-74
2022/05/24 09:47:43;;;;;;;5.40;4.90;;;;;;;18.26;57.04;99889.85;1578625;88;21120;-74
2022/05/24 09:50:37;;;;;;;5.55;4.97;;;;;;;18.18;57.01;99891.17;1622814;87;20973;-74
2022/05/24 09:53:19;;;;;;;7.92;6.50;;;;;;;18.11;57.09;99895.08;1610449;88;21387;-74
2022/05/24 09:56:01;;;;;;;6.90;5.72;;;;;;;18.07;57.19;99904.51;1650280;86;20996;-74
2022/05/24 09:58:37;;;;;;;7.87;5.45;;;;;;;17.97;57.22;99900.73;1643709;85;21065;-77
2022/05/24 10:01:13;;;;;;;6.40;5.85;;;;;;;17.89;57.19;99901.17;1628955;87;21556;-77
2022/05/24 10:03:46;;;;;;;5.90;4.95;;;;;;;17.78;57.30;99909.64;1631522;86;20992;-76
2022/05/24 10:06:30;;;;;;;6.37;5.37;;;;;;;17.71;57.38;99910.06;1650829;86;21695;-76
2022/05/24 10:09:04;;;;;;;6.75;6.15;;;;;;;17.65;57.53;99915.20;1648408;85;21076;-76
2022/05/24 10:11:51;;;;;;;6.05;5.35;;;;;;;17.58;57.57;99921.68;1646314;85;21480;-76
2022/05/24 10:14:35;;;;;;;7.55;5.92;;;;;;;17.52;57.68;99918.09;1638652;86;21079;-77
2022/05/24 10:17:26;;;;;;;7.60;5.70;;;;;;;17.49;57.79;99920.88;1630107;86;21512;-78
2022/05/24 10:20:10;;;;;;;7.12;5.55;;;;;;;17.46;57.86;99922.36;1608864;88;21128;-77
2022/05/24 10:23:16;;;;;;;11.53;5.62;;;;;;;17.41;57.89;99917.84;1611303;87;21510;-77
2022/05/24 10:26:15;;;;;;;7.20;6.50;;;;;;;17.38;58.01;99926.70;1594225;87;21010;-77
2022/05/24 10:28:49;;;;;;;8.08;6.03;;;;;;;17.35;58.12;99933.40;1655454;85;21398;-77
2022/05/24 10:31:45;;;;;;;7.55;6.25;;;;;;;17.27;58.18;99934.74;1649227;86;21292;-76
2022/05/24 10:40:45;;;;;;;8.88;6.95;;;;;;;17.04;58.87;99935.55;1642296;85;21362;-77
2022/05/24 10:43:32;;;;;;;8.43;7.17;;;;;;;17.08;59.13;99946.21;1633801;86;20981;-78
2022/05/24 10:46:11;;;;;;;9.10;6.60;;;;;;;17.21;59.39;99942.45;1637618;86;21763;-78
2022/05/24 10:48:58;;;;;;;7.55;6.75;;;;;;;17.36;59.52;99944.70;1636570;86;21971;-77
2022/05/24 10:51:37;;;;;;;;;;;;;;;17.50;59.62;99944.32;1657930;85;21442;-77
2022/05/24 10:54:18;;;;;;;7.20;6.47;;;;;;;17.66;60.54;99943.05;1653195;85;20445;-78
2022/05/24 10:57:01;;;;;;;9.48;6.40;;;;;;;17.89;59.95;99942.19;1646439;86;21382;-78
2022/05/24 10:59:54;;;;;;;7.30;6.65;;;;;;;18.11;59.92;99946.11;1653429;85;21410;-78
2022/05/24 11:02:47;;;;;;;7.67;6.60;;;;;;;18.32;59.97;99947.08;1649498;85;21560;-77
2022/05/24 11:05:27;;;;;;;9.50;6.30;;;;;;;18.59;60.26;99945.91;1645680;86;21425;-76
2022/05/24 11:08:06;;;;;;;7.12;6.42;;;;;;;18.92;60.21;99955.67;1641273;85;21024;-79
2022/05/24 11:10:36;;;;;;;8.18;7.35;;;;;;;19.14;60.24;99961.30;1637577;85;20912;-77
2022/05/24 11:13:09;;;;;;;7.55;6.72;;;;;;;19.37;60.39;99962.92;1638086;85;21426;-77
2022/05/24 11:15:48;;;;;;;11.50;7.22;;;;;;;19.52;60.36;99966.40;1658979;85;21414;-77
2022/05/24 11:18:22;;;;;;;10.88;6.80;;;;;;;19.66;60.40;99950.63;1655834;85;20965;-77
2022/05/24 11:20:59;;;;;;;7.37;6.67;;;;;;;19.78;60.39;99947.19;1657068;85;20873;-77
2022/05/24 11:23:39;;;;;;;8.98;7.30;;;;;;;19.84;60.49;99942.38;1638714;85;20948;-77
2022/05/24 11:26:25;;;;;;;9.28;6.87;;;;;;;19.94;60.43;99953.59;1585424;85;5001324;-77
2022/05/24 11:29:21;;;;;;;7.58;6.78;;;;;;;20.05;60.68;99953.74;1640931;85;21489;-77
2022/05/24 11:31:50;;;;;;;7.90;7.10;;;;;;;20.21;60.58;99960.14;1649639;85;20923;-77
2022/05/24 11:34:26;;;;;;;9.18;7.28;;;;;;;20.29;60.49;99952.56;1651038;86;21469;-77
2022/05/24 11:37:15;;;;;;;8.53;7.65;;;;;;;20.33;60.59;99957.51;1630696;86;21447;-77
2022/05/24 11:39:44;;;;;;;8.18;6.83;;;;;;;20.45;60.61;99965.07;1638061;85;21565;-78
2022/05/24 11:42:42;;;;;;;7.92;7.22;;;;;;;20.56;60.62;99957.78;1642693;86;21457;-78
2022/05/24 11:45:34;;;;;;;11.30;7.55;;;;;;;20.64;60.53;99960.73;1643645;85;21513;-78
2022/05/24 11:48:13;;;;;;;8.20;7.40;;;;;;;20.56;60.42;99953.84;1596865;87;20976;-78
2022/05/24 11:50:46;;;;;;;8.80;7.05;;;;;;;20.47;60.51;99952.67;1622980;86;21389;-78
2022/05/24 11:53:35;;;;;;;8.28;7.42;;;;;;;20.47;60.62;99956.63;1640721;85;20921;-78
2022/05/24 11:56:13;;;;;;;8.00;7.35;;;;;;;20.49;60.62;99957.36;1629617;86;20906;-78
2022/05/24 11:58:45;;;;;;;7.37;6.78;;;;;;;20.60;60.61;99955.32;1624895;87;20994;-77
2022/05/24 12:01:19;;;;;;;8.70;7.85;;;;;;;20.67;60.75;99951.33;1638510;85;21016;-77
2022/05/24 12:10:13;;;;;;;8.50;7.83;;;;;;;20.97;60.67;99944.41;1673790;84;20928;-77
2022/05/24 12:13:06;;;;;;;9.25;8.35;;;;;;;21.11;60.60;99953.02;1631844;85;21049;-78
2022/05/24 12:15:43;;;;;;;11.40;8.28;;;;;;;21.13;60.49;99945.02;1607325;86;21001;-79
2022/05/24 12:18:17;;;;;;;8.68;7.55;;;;;;;21.14;60.47;99948.86;1643229;85;21143;-79
2022/05/24 12:20:49;;;;;;;10.03;7.87;;;;;;;21.20;60.48;99943.64;1617222;86;21507;-79
2022/05/24 12:23:33;;;;;;;9.15;7.90;;;;;;;21.26;60.45;99943.72;1644500;86;21639;-79
2022/05/24 12:26:12;;;;;;;10.55;8.28;;;;;;;21.34;60.58;99951.40;1640798;86;21059;-79
2022/05/24 12:28:43;;;;;;;9.70;7.83;;;;;;;21.47;60.51;99950.89;1614227;87;21056;-79
2022/05/24 12:31:30;;;;;;;10.10;8.40;;;;;;;21.59;60.47;99954.44;1638556;87;21471;-79
2022/05/24 12:34:00;;;;;;;9.63;8.73;;;;;;;21.65;60.46;99951.84;1624024;88;21081;-79
2022/05/24 12:36:46;;;;;;;9.50;8.58;;;;;;;21.69;60.37;99950.66;1624970;87;21045;-79
2022/05/24 12:39:21;;;;;;;8.53;7.58;;;;;;;21.72;60.26;99949.97;1635388;86;21067;-80
2022/05/24 12:42:01;;;;;;;8.65;7.85;;;;;;;21.76;60.30;99941.38;1625991;86;20998;-79